Time;durP1;ratioP1;P1;durP2;ratioP2;P2;SDS_P1;SDS_P2;PMS_P1;PMS_P2;Temp;Humidity;BMP_temperature;BMP_pressure;BME280_temperature;BME280_humidity;BME280_pressure;Samples;Min_cycle;Max_cycle;Signal;HPM_P1;HPM_P2
2023/12/19 00:00:46;;;;;;;40.75;22.60;;;;;;;-143.54;100.00;59916.91;5099802;28;20023;-82
2023/12/19 00:03:12;;;;;;;40.78;22.55;;;;;;;-143.54;100.00;59916.91;5091834;28;20017;-82
2023/12/19 00:05:40;;;;;;;40.90;21.75;;;;;;;-143.54;100.00;59916.91;5092757;28;20050;-82
2023/12/19 00:08:06;;;;;;;44.13;22.13;;;;;;;-143.54;100.00;59916.91;5099462;28;20051;-82
2023/12/19 00:10:32;;;;;;;45.03;23.50;;;;;;;-143.54;100.00;59916.91;5093913;28;20024;-82
2023/12/19 00:12:57;;;;;;;44.63;21.70;;;;;;;-143.54;100.00;59916.91;5095435;28;20475;-82
2023/12/19 00:15:23;;;;;;;41.33;22.08;;;;;;;-143.54;100.00;59916.91;5097903;28;20047;-82
2023/12/19 00:17:48;;;;;;;44.10;21.30;;;;;;;-143.54;100.00;59916.91;5099997;28;20027;-82
2023/12/19 00:20:14;;;;;;;38.47;20.80;;;;;;;-143.54;100.00;59916.91;5096065;28;20035;-82
2023/12/19 00:22:39;;;;;;;41.78;22.48;;;;;;;-143.54;100.00;59916.91;5101303;28;20020;-82
2023/12/19 00:25:05;;;;;;;39.97;21.80;;;;;;;-143.54;100.00;59916.91;5093927;28;20024;-82
2023/12/19 00:27:30;;;;;;;48.05;22.60;;;;;;;-143.54;100.00;59916.91;5087861;28;20043;-82
2023/12/19 00:29:55;;;;;;;44.72;21.88;;;;;;;-143.54;100.00;59916.91;5092587;28;20032;-82
2023/12/19 00:32:21;;;;;;;41.08;21.73;;;;;;;-143.54;100.00;59916.91;5100272;28;20100;-82
2023/12/19 00:34:46;;;;;;;44.05;22.80;;;;;;;-143.54;100.00;59916.91;5096988;28;20028;-82
2023/12/19 00:37:12;;;;;;;41.15;22.00;;;;;;;-143.54;100.00;59916.91;5099853;28;20028;-82
2023/12/19 00:39:38;;;;;;;42.65;22.33;;;;;;;-143.54;100.00;59916.91;5092399;28;20725;-82
2023/12/19 00:42:03;;;;;;;39.00;21.02;;;;;;;-143.54;100.00;59916.91;5100339;28;20050;-82
2023/12/19 00:44:29;;;;;;;46.08;22.58;;;;;;;-143.54;100.00;59916.91;5098168;28;20028;-82
2023/12/19 00:46:56;;;;;;;43.00;21.52;;;;;;;-143.54;100.00;59916.91;5098929;28;20035;-82
2023/12/19 00:49:21;;;;;;;40.38;23.20;;;;;;;-143.54;100.00;59916.91;5097317;28;20047;-82
2023/12/19 00:51:46;;;;;;;45.92;22.95;;;;;;;-143.54;100.00;59916.91;5098737;28;20361;-82
2023/12/19 00:54:12;;;;;;;40.80;21.60;;;;;;;-143.54;100.00;59916.91;5096644;28;20092;-82
2023/12/19 00:56:39;;;;;;;44.50;22.10;;;;;;;-143.54;100.00;59916.91;5099402;28;20032;-82
2023/12/19 00:59:05;;;;;;;41.75;20.98;;;;;;;-143.54;100.00;59916.91;5094458;28;20459;-82
2023/12/19 01:01:30;;;;;;;37.97;21.83;;;;;;;-143.54;100.00;59916.91;5100064;28;20145;-82
2023/12/19 01:03:55;;;;;;;42.10;22.73;;;;;;;-143.54;100.00;59916.91;5101808;28;20467;-82
2023/12/19 01:06:21;;;;;;;43.92;20.77;;;;;;;-143.54;100.00;59916.91;5098802;28;20023;-82
2023/12/19 01:08:46;;;;;;;40.95;22.60;;;;;;;-143.54;100.00;59916.91;5103838;28;20024;-82
2023/12/19 01:11:11;;;;;;;47.75;22.38;;;;;;;-143.54;100.00;59916.91;5097859;28;20036;-82
2023/12/19 01:13:37;;;;;;;44.28;23.25;;;;;;;-143.54;100.00;59916.91;5104954;28;20035;-82
2023/12/19 01:16:03;;;;;;;50.92;23.67;;;;;;;-143.54;100.00;59916.91;5095521;28;20032;-82
2023/12/19 01:18:28;;;;;;;46.75;22.60;;;;;;;-143.54;100.00;59916.91;5105438;28;20107;-82
2023/12/19 01:20:54;;;;;;;41.35;22.10;;;;;;;-143.54;100.00;59916.91;5102827;28;20153;-82
2023/12/19 01:23:19;;;;;;;45.45;22.45;;;;;;;-143.54;100.00;59916.91;5103004;28;20032;-82
2023/12/19 01:25:44;;;;;;;42.33;22.70;;;;;;;-143.54;100.00;59916.91;5100042;28;20060;-82
2023/12/19 01:28:11;;;;;;;47.58;23.02;;;;;;;-143.54;100.00;59916.91;5103756;28;20031;-82
2023/12/19 01:30:36;;;;;;;46.38;22.58;;;;;;;-143.54;100.00;59916.91;5103648;28;20031;-82
2023/12/19 01:33:01;;;;;;;47.33;23.17;;;;;;;-143.54;100.00;59916.91;5102473;28;20024;-82
2023/12/19 01:35:27;;;;;;;46.75;22.70;;;;;;;-143.54;100.00;59916.91;5102487;28;20028;-82
2023/12/19 01:37:52;;;;;;;45.03;22.85;;;;;;;-143.54;100.00;59916.91;5104839;28;20024;-82
2023/12/19 01:40:17;;;;;;;50.50;23.52;;;;;;;-143.54;100.00;59916.91;5095712;28;20031;-82
2023/12/19 01:42:42;;;;;;;52.38;24.48;;;;;;;-143.54;100.00;59916.91;5105997;28;20027;-82
2023/12/19 01:45:12;;;;;;;45.67;22.55;;;;;;;-143.54;100.00;59916.91;5098529;28;20028;-82
2023/12/19 01:47:43;;;;;;;42.53;22.45;;;;;;;-143.54;100.00;59916.91;5103846;28;20372;-82
2023/12/19 01:50:10;;;;;;;47.53;22.77;;;;;;;-143.54;100.00;59916.91;5098347;28;20095;-82
2023/12/19 01:52:40;;;;;;;47.78;22.73;;;;;;;-143.54;100.00;59916.91;5099873;28;20035;-82
2023/12/19 01:55:07;;;;;;;48.05;22.33;;;;;;;-143.54;100.00;59916.91;5094384;28;20175;-82
2023/12/19 01:57:33;;;;;;;50.22;24.02;;;;;;;-143.54;100.00;59916.91;5099774;28;20488;-83
2023/12/19 01:59:59;;;;;;;44.65;23.17;;;;;;;-143.54;100.00;59916.91;5105929;28;20024;-82
2023/12/19 02:02:25;;;;;;;44.97;20.92;;;;;;;-143.54;100.00;59916.91;5097205;28;20028;-82
2023/12/19 02:04:52;;;;;;;48.00;22.90;;;;;;;-143.54;100.00;59916.91;5102056;28;20502;-82
2023/12/19 02:07:18;;;;;;;45.78;22.50;;;;;;;-143.54;100.00;59916.91;5098280;28;20024;-82
2023/12/19 02:09:43;;;;;;;44.58;22.20;;;;;;;-143.54;100.00;59916.91;5102697;28;20073;-82
2023/12/19 02:12:09;;;;;;;46.67;23.17;;;;;;;-143.54;100.00;59916.91;5100740;28;20390;-82
2023/12/19 02:14:35;;;;;;;45.45;23.08;;;;;;;-143.54;100.00;59916.91;5102836;28;20024;-81
2023/12/19 02:17:00;;;;;;;48.33;22.63;;;;;;;-143.54;100.00;59916.91;5101722;28;20381;-82
2023/12/19 02:19:25;;;;;;;43.22;21.52;;;;;;;-143.54;100.00;59916.91;5100665;28;20032;-82
2023/12/19 02:21:51;;;;;;;45.80;22.50;;;;;;;-143.54;100.00;59916.91;5098403;28;20424;-82
2023/12/19 02:24:17;;;;;;;43.70;22.05;;;;;;;-143.54;100.00;59916.91;5104141;28;20035;-82
2023/12/19 02:26:42;;;;;;;44.40;22.25;;;;;;;-143.54;100.00;59916.91;5102418;28;20111;-82
2023/12/19 02:29:08;;;;;;;45.00;22.80;;;;;;;-143.54;100.00;59916.91;5097279;28;20024;-82
2023/12/19 02:31:33;;;;;;;48.42;23.73;;;;;;;-143.54;100.00;59916.91;5098451;28;20498;-82
2023/12/19 02:33:58;;;;;;;42.97;22.67;;;;;;;-143.54;100.00;59916.91;5109989;28;20051;-82
2023/12/19 02:36:23;;;;;;;46.17;22.25;;;;;;;-143.54;100.00;59916.91;5100063;28;20490;-81
2023/12/19 02:38:49;;;;;;;41.50;22.10;;;;;;;-143.54;100.00;59916.91;5107190;28;20062;-82
2023/12/19 02:41:14;;;;;;;49.08;23.27;;;;;;;-143.54;100.00;59916.91;5101952;28;20508;-82
2023/12/19 02:43:39;;;;;;;41.92;21.83;;;;;;;-143.54;100.00;59916.91;5100730;28;20024;-82
2023/12/19 02:46:06;;;;;;;45.20;22.80;;;;;;;-143.54;100.00;59916.91;5098639;28;20034;-82
2023/12/19 02:48:32;;;;;;;46.65;22.42;;;;;;;-143.54;100.00;59916.91;5101547;28;20103;-82
2023/12/19 02:50:57;;;;;;;50.05;23.50;;;;;;;-143.54;100.00;59916.91;5104449;28;20114;-82
2023/12/19 02:53:22;;;;;;;43.40;21.90;;;;;;;-143.54;100.00;59916.91;5103078;28;20057;-82
2023/12/19 02:55:48;;;;;;;41.97;20.35;;;;;;;-143.54;100.00;59916.91;5093874;28;20545;-82
2023/12/19 02:58:13;;;;;;;42.72;20.33;;;;;;;-143.54;100.00;59916.91;5099848;28;20035;-82
2023/12/19 03:00:38;;;;;;;46.88;21.80;;;;;;;-143.54;100.00;59916.91;5094601;28;20032;-82
2023/12/19 03:03:04;;;;;;;46.05;22.20;;;;;;;-143.54;100.00;59916.91;5101119;28;20076;-81
2023/12/19 03:05:29;;;;;;;46.78;22.55;;;;;;;-143.54;100.00;59916.91;5093384;28;20035;-81
2023/12/19 03:07:55;;;;;;;49.45;23.45;;;;;;;-143.54;100.00;59916.91;5098521;28;20028;-82
2023/12/19 03:10:20;;;;;;;49.40;22.48;;;;;;;-143.54;100.00;59916.91;5109390;28;20020;-82
2023/12/19 03:12:45;;;;;;;46.80;22.27;;;;;;;-143.54;100.00;59916.91;5096771;28;20042;-82
2023/12/19 03:15:11;;;;;;;47.88;23.95;;;;;;;-143.54;100.00;59916.91;5097963;28;20494;-81
2023/12/19 03:17:36;;;;;;;43.25;21.35;;;;;;;-143.54;100.00;59916.91;5096073;28;20028;-82
2023/12/19 03:20:02;;;;;;;44.55;21.77;;;;;;;-143.54;100.00;59916.91;5095834;28;20162;-82
2023/12/19 03:22:27;;;;;;;46.67;22.90;;;;;;;-143.54;100.00;59916.91;5098406;28;20024;-82
2023/12/19 03:24:54;;;;;;;55.00;23.10;;;;;;;-143.54;100.00;59916.91;5099278;28;20030;-82
2023/12/19 03:27:19;;;;;;;49.75;22.60;;;;;;;-143.54;100.00;59916.91;5100188;28;20039;-82
2023/12/19 03:29:44;;;;;;;49.22;22.40;;;;;;;-143.54;100.00;59916.91;5102213;28;20131;-82
2023/12/19 03:32:10;;;;;;;47.03;21.85;;;;;;;-143.54;100.00;59916.91;5102956;28;20085;-82
2023/12/19 03:34:38;;;;;;;49.60;23.15;;;;;;;-143.54;100.00;59916.91;5100336;28;20474;-82
2023/12/19 03:37:04;;;;;;;47.33;22.08;;;;;;;-143.54;100.00;59916.91;5098579;28;20020;-82
2023/12/19 03:39:29;;;;;;;44.67;21.88;;;;;;;-143.54;100.00;59916.91;5091845;28;20069;-82
2023/12/19 03:41:54;;;;;;;47.75;21.77;;;;;;;-143.54;100.00;59916.91;5101309;28;20053;-82
2023/12/19 03:44:20;;;;;;;46.13;21.90;;;;;;;-143.54;100.00;59916.91;5104528;28;20027;-82
2023/12/19 03:46:45;;;;;;;48.33;23.00;;;;;;;-143.54;100.00;59916.91;5096990;28;20031;-82
2023/12/19 03:49:12;;;;;;;44.45;21.25;;;;;;;-143.54;100.00;59916.91;5103351;28;20028;-82
2023/12/19 03:51:38;;;;;;;44.95;21.95;;;;;;;-143.54;100.00;59916.91;5094926;28;20039;-82
2023/12/19 03:54:03;;;;;;;50.45;22.77;;;;;;;-143.54;100.00;59916.91;5098587;28;20030;-82
2023/12/19 03:56:28;;;;;;;52.60;23.10;;;;;;;-143.54;100.00;59916.91;5099966;28;20056;-82
2023/12/19 03:58:53;;;;;;;48.15;21.38;;;;;;;-143.54;100.00;59916.91;5100821;28;20057;-82
2023/12/19 04:01:20;;;;;;;54.72;23.20;;;;;;;-143.54;100.00;59916.91;5105592;28;20039;-82
2023/12/19 04:03:45;;;;;;;60.58;25.33;;;;;;;-143.54;100.00;59916.91;5097487;28;20109;-82
2023/12/19 04:06:10;;;;;;;57.42;25.63;;;;;;;-143.54;100.00;59916.91;5099997;28;20138;-82
2023/12/19 04:08:36;;;;;;;66.72;26.98;;;;;;;-143.54;100.00;59916.91;5104215;28;20035;-82
2023/12/19 04:11:01;;;;;;;65.78;28.00;;;;;;;-143.54;100.00;59916.91;5104217;28;20110;-82
2023/12/19 04:13:27;;;;;;;67.78;26.75;;;;;;;-143.54;100.00;59916.91;5101032;28;20085;-82
2023/12/19 04:15:52;;;;;;;57.80;27.42;;;;;;;-143.54;100.00;59916.91;5097390;28;20024;-82
2023/12/19 04:18:17;;;;;;;63.95;26.73;;;;;;;-143.54;100.00;59916.91;5096018;28;20027;-82
2023/12/19 04:20:43;;;;;;;69.97;30.30;;;;;;;-143.54;100.00;59916.91;5107611;28;20035;-82
2023/12/19 04:23:09;;;;;;;70.72;29.30;;;;;;;-143.54;100.00;59916.91;5098062;28;20040;-82
2023/12/19 04:25:35;;;;;;;67.03;30.92;;;;;;;-143.54;100.00;59916.91;5104991;28;20058;-82
2023/12/19 04:28:00;;;;;;;80.30;31.88;;;;;;;-143.54;100.00;59916.91;5096154;28;20047;-82
2023/12/19 04:30:25;;;;;;;78.28;30.35;;;;;;;-143.54;100.00;59916.91;5104024;28;20411;-82
2023/12/19 04:32:52;;;;;;;73.05;30.42;;;;;;;-143.54;100.00;59916.91;5099308;28;20546;-82
2023/12/19 04:35:17;;;;;;;72.80;29.92;;;;;;;-143.54;100.00;59916.91;5105272;28;20099;-82
2023/12/19 04:37:42;;;;;;;69.03;29.88;;;;;;;-143.54;100.00;59916.91;5098101;28;20028;-82
2023/12/19 04:40:08;;;;;;;78.93;31.63;;;;;;;-143.54;100.00;59916.91;5102488;28;20035;-82
2023/12/19 04:42:33;;;;;;;86.55;32.00;;;;;;;-143.54;100.00;59916.91;5102413;28;20031;-82
2023/12/19 04:44:58;;;;;;;71.68;30.27;;;;;;;-143.54;100.00;59916.91;5107435;28;20863;-82
2023/12/19 04:47:24;;;;;;;75.65;31.77;;;;;;;-143.54;100.00;59916.91;5107414;28;20016;-82
2023/12/19 04:49:49;;;;;;;74.30;28.58;;;;;;;-143.54;100.00;59916.91;5099819;28;20092;-82
2023/12/19 04:52:14;;;;;;;74.20;30.95;;;;;;;-143.54;100.00;59916.91;5104762;28;20032;-82
2023/12/19 04:54:40;;;;;;;75.35;31.05;;;;;;;-143.54;100.00;59916.91;5102607;28;20028;-82
2023/12/19 04:57:05;;;;;;;77.28;30.85;;;;;;;-143.54;100.00;59916.91;5101844;28;20051;-82
2023/12/19 04:59:31;;;;;;;69.57;29.67;;;;;;;-143.54;100.00;59916.91;5102331;28;20024;-82
2023/12/19 05:01:57;;;;;;;75.75;29.77;;;;;;;-143.54;100.00;59916.91;5103913;28;20028;-82
2023/12/19 05:04:22;;;;;;;72.07;32.08;;;;;;;-143.54;100.00;59916.91;5102947;28;20490;-82
2023/12/19 05:06:47;;;;;;;71.65;29.63;;;;;;;-143.54;100.00;59916.91;5108715;28;20032;-82
2023/12/19 05:09:13;;;;;;;69.05;29.63;;;;;;;-143.54;100.00;59916.91;5107320;28;20526;-82
2023/12/19 05:11:42;;;;;;;67.93;29.75;;;;;;;-143.54;100.00;59916.91;5101869;28;20036;-82
2023/12/19 05:14:08;;;;;;;63.20;29.52;;;;;;;-143.54;100.00;59916.91;5098658;28;20032;-82
2023/12/19 05:16:33;;;;;;;72.97;30.65;;;;;;;-143.54;100.00;59916.91;5112201;28;20020;-82
2023/12/19 05:18:58;;;;;;;69.40;29.40;;;;;;;-143.54;100.00;59916.91;5098005;28;20035;-82
2023/12/19 05:21:24;;;;;;;64.93;29.65;;;;;;;-143.54;100.00;59916.91;5095667;28;20024;-82
2023/12/19 05:23:49;;;;;;;74.88;34.20;;;;;;;-143.54;100.00;59916.91;5094529;28;20035;-82
2023/12/19 05:26:14;;;;;;;68.60;29.98;;;;;;;-143.54;100.00;59916.91;5103330;28;20020;-82
2023/12/19 05:28:40;;;;;;;72.00;30.42;;;;;;;-143.54;100.00;59916.91;5103716;28;20043;-83
2023/12/19 05:31:06;;;;;;;64.55;29.48;;;;;;;-143.54;100.00;59916.91;5103619;28;20522;-82
2023/12/19 05:33:33;;;;;;;69.57;28.70;;;;;;;-143.54;100.00;59916.91;5096055;28;20024;-82
2023/12/19 05:35:59;;;;;;;63.70;28.35;;;;;;;-143.54;100.00;59916.91;5100077;28;20103;-82
2023/12/19 05:38:24;;;;;;;64.57;29.60;;;;;;;-143.54;100.00;59916.91;5109151;28;20110;-82
2023/12/19 05:40:51;;;;;;;63.67;30.08;;;;;;;-143.54;100.00;59916.91;5098581;28;20382;-82
2023/12/19 05:43:17;;;;;;;66.32;30.05;;;;;;;-143.54;100.00;59916.91;5107621;28;20052;-82
2023/12/19 05:45:42;;;;;;;74.53;29.85;;;;;;;-143.54;100.00;59916.91;5093148;28;20055;-82
2023/12/19 05:48:08;;;;;;;66.88;29.67;;;;;;;-143.54;100.00;59916.91;5109825;28;20573;-82
2023/12/19 05:50:34;;;;;;;71.32;29.15;;;;;;;-143.54;100.00;59916.91;5101486;28;20028;-82
2023/12/19 05:52:59;;;;;;;68.53;30.42;;;;;;;-143.54;100.00;59916.91;5098500;28;20373;-82
2023/12/19 05:55:25;;;;;;;63.55;29.27;;;;;;;-143.54;100.00;59916.91;5105923;28;20048;-82
2023/12/19 05:57:50;;;;;;;64.00;30.65;;;;;;;-143.54;100.00;59916.91;5103042;28;20063;-82
2023/12/19 06:00:17;;;;;;;61.58;29.00;;;;;;;-143.54;100.00;59916.91;5099281;28;20019;-82
2023/12/19 06:02:43;;;;;;;60.92;28.58;;;;;;;-143.54;100.00;59916.91;5096893;28;20428;-82
2023/12/19 06:05:09;;;;;;;65.93;29.40;;;;;;;-143.54;100.00;59916.91;5106372;28;20522;-82
2023/12/19 06:07:36;;;;;;;59.10;29.42;;;;;;;-143.54;100.00;59916.91;5111292;28;20023;-82
2023/12/19 06:10:12;;;;;;;57.20;27.23;;;;;;;-143.54;100.00;59916.91;5101396;28;20020;-82
2023/12/19 06:12:37;;;;;;;56.90;26.60;;;;;;;-143.54;100.00;59916.91;5089037;28;20106;-83
2023/12/19 06:15:08;;;;;;;58.25;27.80;;;;;;;-143.54;100.00;59916.91;5104385;28;20103;-83
2023/12/19 06:17:34;;;;;;;58.35;27.45;;;;;;;-143.54;100.00;59916.91;5090519;28;20046;-82
2023/12/19 06:19:59;;;;;;;54.10;27.27;;;;;;;-143.54;100.00;59916.91;5099229;28;20032;-82
2023/12/19 06:22:24;;;;;;;51.88;26.58;;;;;;;-143.54;100.00;59916.91;5101720;28;20055;-82
2023/12/19 06:24:50;;;;;;;51.03;24.88;;;;;;;-143.54;100.00;59916.91;5102621;28;20030;-82
2023/12/19 06:27:16;;;;;;;54.42;25.52;;;;;;;-143.54;100.00;59916.91;5098221;28;20043;-82
2023/12/19 06:29:42;;;;;;;55.05;28.17;;;;;;;-143.54;100.00;59916.91;5095905;28;20036;-82
2023/12/19 06:32:10;;;;;;;56.20;27.23;;;;;;;-143.54;100.00;59916.91;5099333;28;20123;-82
2023/12/19 06:34:35;;;;;;;55.60;27.85;;;;;;;-143.54;100.00;59916.91;5098136;28;20034;-82
2023/12/19 06:37:01;;;;;;;49.42;25.90;;;;;;;-143.54;100.00;59916.91;5103733;28;20532;-82
2023/12/19 06:39:26;;;;;;;51.20;25.45;;;;;;;-143.54;100.00;59916.91;5103420;28;20081;-82
2023/12/19 06:41:53;;;;;;;54.95;26.60;;;;;;;-143.54;100.00;59916.91;5101463;28;20069;-82
2023/12/19 06:44:18;;;;;;;55.83;26.77;;;;;;;-143.54;100.00;59916.91;5100929;28;20498;-83
2023/12/19 06:46:46;;;;;;;54.00;25.73;;;;;;;-143.54;100.00;59916.91;5099201;28;20032;-82
2023/12/19 06:49:15;;;;;;;49.20;25.67;;;;;;;-143.54;100.00;59916.91;5101385;28;20501;-82
2023/12/19 06:51:41;;;;;;;51.80;25.50;;;;;;;-143.54;100.00;59916.91;5102475;28;20043;-82
2023/12/19 06:54:06;;;;;;;46.53;24.60;;;;;;;-143.54;100.00;59916.91;5105271;28;20379;-82
2023/12/19 06:56:31;;;;;;;47.92;24.40;;;;;;;-143.54;100.00;59916.91;5104749;28;20076;-83
2023/12/19 06:58:56;;;;;;;44.47;24.02;;;;;;;-143.54;100.00;59916.91;5102524;28;20055;-82
2023/12/19 07:01:23;;;;;;;43.58;23.80;;;;;;;-143.54;100.00;59916.91;5098644;28;20028;-82
2023/12/19 07:03:48;;;;;;;42.47;23.27;;;;;;;-143.54;100.00;59916.91;5101092;28;20383;-82
2023/12/19 07:06:14;;;;;;;44.50;24.20;;;;;;;-143.54;100.00;59916.91;5102197;28;20024;-82
2023/12/19 07:08:40;;;;;;;43.38;23.52;;;;;;;-143.54;100.00;59916.91;5098986;28;20038;-82
2023/12/19 07:11:05;;;;;;;42.20;24.48;;;;;;;-143.54;100.00;59916.91;5100096;28;20032;-83
2023/12/19 07:13:31;;;;;;;41.85;22.73;;;;;;;-143.54;100.00;59916.91;5096531;28;20024;-83
2023/12/19 07:15:56;;;;;;;37.30;22.63;;;;;;;-143.54;100.00;59916.91;5099107;28;20024;-82
2023/12/19 07:18:21;;;;;;;39.00;22.42;;;;;;;-143.54;100.00;59916.91;5095691;28;20080;-82
2023/12/19 07:20:46;;;;;;;43.35;22.55;;;;;;;-143.54;100.00;59916.91;5098818;28;20038;-83
2023/12/19 07:23:12;;;;;;;40.92;22.00;;;;;;;-143.54;100.00;59916.91;5095807;28;20108;-83
2023/12/19 07:25:38;;;;;;;40.00;23.05;;;;;;;-143.54;100.00;59916.91;5099198;28;20467;-82
2023/12/19 07:28:03;;;;;;;40.45;21.65;;;;;;;-143.54;100.00;59916.91;5101966;28;20073;-82
2023/12/19 07:30:29;;;;;;;37.20;22.35;;;;;;;-143.54;100.00;59916.91;5096543;28;20060;-82
2023/12/19 07:32:54;;;;;;;36.13;21.20;;;;;;;-143.54;100.00;59916.91;5111177;28;20020;-82
2023/12/19 07:35:20;;;;;;;38.72;21.38;;;;;;;-143.54;100.00;59916.91;5108961;28;20020;-82
2023/12/19 07:37:45;;;;;;;35.67;21.38;;;;;;;-143.54;100.00;59916.91;5099354;28;20073;-83
2023/12/19 07:40:12;;;;;;;34.50;20.63;;;;;;;-143.54;100.00;59916.91;5107991;28;20513;-82
2023/12/19 07:42:38;;;;;;;37.33;20.05;;;;;;;-143.54;100.00;59916.91;5102600;28;20499;-82
2023/12/19 07:45:06;;;;;;;32.30;19.60;;;;;;;-143.54;100.00;59916.91;5100737;28;20510;-82
2023/12/19 07:47:31;;;;;;;39.08;20.23;;;;;;;-143.54;100.00;59916.91;5103525;28;20027;-82
2023/12/19 07:49:57;;;;;;;35.35;19.55;;;;;;;-143.54;100.00;59916.91;5095324;28;20352;-82
2023/12/19 07:52:22;;;;;;;39.17;19.63;;;;;;;-143.54;100.00;59916.91;5105787;28;20027;-82
2023/12/19 07:54:47;;;;;;;32.72;18.55;;;;;;;-143.54;100.00;59916.91;5096058;28;20082;-82
2023/12/19 07:57:13;;;;;;;33.90;19.85;;;;;;;-143.54;100.00;59916.91;5099081;28;20028;-82
2023/12/19 07:59:39;;;;;;;33.80;19.10;;;;;;;-143.54;100.00;59916.91;5099502;28;20452;-82
2023/12/19 08:02:04;;;;;;;29.08;18.15;;;;;;;-143.54;100.00;59916.91;5098113;28;20417;-82
2023/12/19 08:04:29;;;;;;;30.98;18.15;;;;;;;-143.54;100.00;59916.91;5104395;28;20161;-82
2023/12/19 08:06:55;;;;;;;30.77;18.10;;;;;;;-143.54;100.00;59916.91;5094373;28;20027;-82
2023/12/19 08:09:20;;;;;;;31.33;16.98;;;;;;;-143.54;100.00;59916.91;5102065;28;20379;-83
2023/12/19 08:11:45;;;;;;;30.25;18.75;;;;;;;-143.54;100.00;59916.91;5098197;28;20106;-83
2023/12/19 08:14:11;;;;;;;31.13;17.50;;;;;;;-143.54;100.00;59916.91;5094831;28;20044;-83
2023/12/19 08:16:36;;;;;;;36.88;19.02;;;;;;;-143.54;100.00;59916.91;5086849;28;20051;-83
2023/12/19 08:19:01;;;;;;;30.85;18.65;;;;;;;-143.54;100.00;59916.91;5092102;28;20028;-82
2023/12/19 08:21:26;;;;;;;40.10;19.80;;;;;;;-143.54;100.00;59916.91;5094768;28;20498;-82
2023/12/19 08:23:52;;;;;;;34.28;19.75;;;;;;;-143.54;100.00;59916.91;5093927;28;20020;-83
2023/12/19 08:26:17;;;;;;;35.58;19.88;;;;;;;-143.54;100.00;59916.91;5097652;28;20065;-83
2023/12/19 08:28:43;;;;;;;37.45;19.42;;;;;;;-143.54;100.00;59916.91;5106564;28;20031;-82
2023/12/19 08:31:08;;;;;;;40.72;20.38;;;;;;;-143.54;100.00;59916.91;5099353;28;20111;-83
2023/12/19 08:33:33;;;;;;;40.13;20.92;;;;;;;-143.54;100.00;59916.91;5093800;28;20024;-83
2023/12/19 08:35:59;;;;;;;37.63;20.30;;;;;;;-143.54;100.00;59916.91;5097961;28;20383;-83
2023/12/19 08:38:24;;;;;;;45.85;21.83;;;;;;;-143.54;100.00;59916.91;5100298;28;20029;-82
2023/12/19 08:40:49;;;;;;;44.08;21.23;;;;;;;-143.54;100.00;59916.91;5097324;28;20031;-84
2023/12/19 08:43:18;;;;;;;37.97;21.52;;;;;;;-143.54;100.00;59916.91;5103634;28;20034;-83
2023/12/19 08:45:43;;;;;;;38.97;21.00;;;;;;;-143.54;100.00;59916.91;5098149;28;20039;-83
2023/12/19 08:48:09;;;;;;;41.40;22.63;;;;;;;-143.54;100.00;59916.91;5096376;28;20028;-82
2023/12/19 08:50:34;;;;;;;39.97;21.83;;;;;;;-143.54;100.00;59916.91;5099978;28;20095;-82
2023/12/19 08:53:00;;;;;;;46.50;22.73;;;;;;;-143.54;100.00;59916.91;5100906;28;20495;-82
2023/12/19 08:55:26;;;;;;;44.78;21.75;;;;;;;-143.54;100.00;59916.91;5096887;28;20040;-82
2023/12/19 08:57:52;;;;;;;44.08;21.52;;;;;;;-143.54;100.00;59916.91;5098275;28;20028;-82
2023/12/19 09:00:18;;;;;;;43.33;21.85;;;;;;;-143.54;100.00;59916.91;5097310;28;20028;-82
2023/12/19 09:02:45;;;;;;;36.10;19.58;;;;;;;-143.54;100.00;59916.91;5090327;28;20028;-82
2023/12/19 09:05:11;;;;;;;45.85;22.42;;;;;;;-143.54;100.00;59916.91;5100459;28;20032;-82
2023/12/19 09:07:36;;;;;;;40.20;20.30;;;;;;;-143.54;100.00;59916.91;5103200;28;20016;-82
2023/12/19 09:10:02;;;;;;;41.92;22.30;;;;;;;-143.54;100.00;59916.91;5101185;28;20387;-82
2023/12/19 09:12:27;;;;;;;45.05;21.15;;;;;;;-143.54;100.00;59916.91;5104098;28;20468;-82
2023/12/19 09:14:52;;;;;;;37.03;20.90;;;;;;;-143.54;100.00;59916.91;5098965;28;20021;-82
2023/12/19 09:17:18;;;;;;;37.22;20.50;;;;;;;-143.54;100.00;59916.91;5096304;28;20046;-81
2023/12/19 09:19:43;;;;;;;41.50;20.13;;;;;;;-143.54;100.00;59916.91;5103772;28;20455;-82
2023/12/19 09:22:09;;;;;;;43.95;21.10;;;;;;;-143.54;100.00;59916.91;5098236;28;20036;-83
2023/12/19 09:24:35;;;;;;;37.17;19.50;;;;;;;-143.54;100.00;59916.91;5100713;28;20020;-82
2023/12/19 09:27:00;;;;;;;37.60;18.95;;;;;;;-143.54;100.00;59916.91;5100446;28;20471;-82
2023/12/19 09:29:27;;;;;;;39.38;19.33;;;;;;;-143.54;100.00;59916.91;5104025;28;20079;-82
2023/12/19 09:31:53;;;;;;;34.22;18.95;;;;;;;-143.54;100.00;59916.91;5099303;28;20514;-82
2023/12/19 09:34:21;;;;;;;37.85;18.25;;;;;;;-143.54;100.00;59916.91;5089688;28;20064;-82
2023/12/19 09:36:46;;;;;;;35.35;18.55;;;;;;;-143.54;100.00;59916.91;5093212;28;20028;-82
2023/12/19 09:39:15;;;;;;;39.00;19.33;;;;;;;-143.54;100.00;59916.91;5100297;28;20589;-82
2023/12/19 09:41:42;;;;;;;31.35;16.85;;;;;;;-143.54;100.00;59916.91;5097781;28;20028;-82
2023/12/19 09:44:08;;;;;;;30.13;16.63;;;;;;;-143.54;100.00;59916.91;5102687;28;20020;-82
2023/12/19 09:46:33;;;;;;;35.90;17.88;;;;;;;-143.54;100.00;59916.91;5096992;28;20032;-82
2023/12/19 09:49:00;;;;;;;36.45;17.67;;;;;;;-143.54;100.00;59916.91;5105586;28;20016;-82
2023/12/19 09:51:32;;;;;;;30.98;16.15;;;;;;;-143.54;100.00;59916.91;5098259;28;20094;-82
2023/12/19 09:54:00;;;;;;;30.50;16.70;;;;;;;-143.54;100.00;59916.91;5099998;28;20062;-83
2023/12/19 09:56:26;;;;;;;28.95;16.55;;;;;;;-143.54;100.00;59916.91;5099396;28;20040;-82
2023/12/19 09:58:54;;;;;;;26.00;15.82;;;;;;;-143.54;100.00;59916.91;5098827;28;20063;-82
2023/12/19 10:01:19;;;;;;;27.25;16.02;;;;;;;-143.54;100.00;59916.91;5098898;28;20012;-82
2023/12/19 10:03:45;;;;;;;27.15;14.90;;;;;;;-143.54;100.00;59916.91;5103172;28;20043;-82
2023/12/19 10:06:10;;;;;;;32.10;16.15;;;;;;;-143.54;100.00;59916.91;5102345;28;20157;-82
2023/12/19 10:08:43;;;;;;;29.35;15.90;;;;;;;-143.54;100.00;59916.91;5103272;28;20471;-82
2023/12/19 10:11:15;;;;;;;26.60;15.13;;;;;;;-143.54;100.00;59916.91;5094648;28;20032;-81
2023/12/19 10:13:40;;;;;;;26.55;16.00;;;;;;;-143.54;100.00;59916.91;5099648;28;20605;-82
2023/12/19 10:16:08;;;;;;;26.27;15.10;;;;;;;-143.54;100.00;59916.91;5102752;28;20115;-82
2023/12/19 10:18:34;;;;;;;30.42;16.50;;;;;;;-143.54;100.00;59916.91;5099821;28;20028;-82
2023/12/19 10:21:10;;;;;;;29.38;15.95;;;;;;;-143.54;100.00;59916.91;5098787;28;20229;-81
2023/12/19 10:23:37;;;;;;;29.15;16.13;;;;;;;-143.54;100.00;59916.91;5103435;28;20380;-81
2023/12/19 10:26:06;;;;;;;31.65;16.90;;;;;;;-143.54;100.00;59916.91;5099797;28;20024;-82
2023/12/19 10:28:34;;;;;;;31.13;15.43;;;;;;;-143.54;100.00;59916.91;5110628;28;20175;-81
2023/12/19 10:31:06;;;;;;;29.75;15.90;;;;;;;-143.54;100.00;59916.91;5097512;28;20028;-81
2023/12/19 10:33:51;;;;;;;29.77;16.60;;;;;;;-143.54;100.00;59916.91;5104778;28;20173;-82
2023/12/19 10:36:26;;;;;;;31.55;16.70;;;;;;;-143.54;100.00;59916.91;5095811;28;20036;-81
2023/12/19 10:38:55;;;;;;;28.20;16.25;;;;;;;-143.54;100.00;59916.91;5103325;28;20020;-82
2023/12/19 10:41:22;;;;;;;30.45;16.17;;;;;;;-143.54;100.00;59916.91;5101363;28;20024;-82
2023/12/19 10:43:50;;;;;;;33.42;17.15;;;;;;;-143.54;100.00;59916.91;5102903;28;20103;-82
2023/12/19 10:46:24;;;;;;;28.13;16.65;;;;;;;-143.54;100.00;59916.91;5098044;28;20035;-82
2023/12/19 10:48:59;;;;;;;30.23;15.55;;;;;;;-143.54;100.00;59916.91;5101001;28;20024;-81